Event-Kalender
Terminkalender Drucken Email help
Jahresansicht Monatsansicht Wochenansicht Heute Suche Zum ausgwählten Monat wechseln
Termine für
Sonntag, 9. Juli 2017



JEvents v1.5.5e   Copyright © 2006-2011

Zufallsbild

Aktuelle Termine

Mo Di Mi Do Fr Sa So
26 27 28 29 30 1 2
3 4 5 6 7 8 9
10 11 12 13 14 15 16
17 18 19 20 21 22 23
24 25 26 27 28 29 30
31 1 2 3 4 5 6

Pilotenwetter

[source: ADDS]
METAR
EDDH 252020Z 36009KT 310V030 9999 -RA FEW041 OVC060 14/13 Q1006 NOSIG =
TAF
TAF EDDH 251700Z 2518/2624 03012KT 9999 BKN025 TEMPO 2518/2610 BKN012 PROB30 TEMPO 2518/2608 4500 RA BKN008 BECMG 2522/2601 32007KT BECMG 2618/2621 26004KT =